sensor_id;sensor_type;location;lat;lon;timestamp;P1;durP1;ratioP1;P2;durP2;ratioP2
9950;SDS011;24074;49.254;6.702;2023-07-22T00:01:37;2.83;;;2.33;;
9950;SDS011;24074;49.254;6.702;2023-07-22T00:04:03;3.23;;;2.93;;
9950;SDS011;24074;49.254;6.702;2023-07-22T00:06:29;3.27;;;2.70;;
9950;SDS011;24074;49.254;6.702;2023-07-22T00:08:55;3.00;;;2.60;;
9950;SDS011;24074;49.254;6.702;2023-07-22T00:11:20;4.10;;;2.83;;
9950;SDS011;24074;49.254;6.702;2023-07-22T00:13:46;3.13;;;2.83;;
9950;SDS011;24074;49.254;6.702;2023-07-22T00:16:11;4.13;;;2.53;;
9950;SDS011;24074;49.254;6.702;2023-07-22T00:18:37;3.57;;;2.80;;
9950;SDS011;24074;49.254;6.702;2023-07-22T00:21:03;3.37;;;3.03;;
9950;SDS011;24074;49.254;6.702;2023-07-22T00:23:29;3.37;;;2.67;;
9950;SDS011;24074;49.254;6.702;2023-07-22T00:25:55;4.30;;;3.00;;
9950;SDS011;24074;49.254;6.702;2023-07-22T00:28:20;3.77;;;2.60;;
9950;SDS011;24074;49.254;6.702;2023-07-22T00:30:46;4.80;;;3.37;;
9950;SDS011;24074;49.254;6.702;2023-07-22T00:33:14;3.90;;;3.50;;
9950;SDS011;24074;49.254;6.702;2023-07-22T00:35:39;5.03;;;3.37;;
9950;SDS011;24074;49.254;6.702;2023-07-22T00:38:05;3.77;;;2.90;;
9950;SDS011;24074;49.254;6.702;2023-07-22T00:40:31;3.50;;;2.83;;
9950;SDS011;24074;49.254;6.702;2023-07-22T00:43:02;3.30;;;2.73;;
9950;SDS011;24074;49.254;6.702;2023-07-22T00:45:30;3.80;;;2.90;;
9950;SDS011;24074;49.254;6.702;2023-07-22T00:47:55;4.00;;;2.90;;
9950;SDS011;24074;49.254;6.702;2023-07-22T00:50:21;4.67;;;2.53;;
9950;SDS011;24074;49.254;6.702;2023-07-22T00:52:47;3.00;;;2.80;;
9950;SDS011;24074;49.254;6.702;2023-07-22T00:55:13;4.83;;;3.20;;
9950;SDS011;24074;49.254;6.702;2023-07-22T00:57:39;3.57;;;3.27;;
9950;SDS011;24074;49.254;6.702;2023-07-22T01:00:05;4.63;;;3.10;;
9950;SDS011;24074;49.254;6.702;2023-07-22T01:02:31;5.03;;;3.53;;
9950;SDS011;24074;49.254;6.702;2023-07-22T01:04:57;5.63;;;4.73;;
9950;SDS011;24074;49.254;6.702;2023-07-22T01:07:23;5.57;;;4.13;;
9950;SDS011;24074;49.254;6.702;2023-07-22T01:09:48;6.00;;;4.80;;
9950;SDS011;24074;49.254;6.702;2023-07-22T01:12:14;4.80;;;4.00;;
9950;SDS011;24074;49.254;6.702;2023-07-22T01:14:41;6.00;;;3.47;;
9950;SDS011;24074;49.254;6.702;2023-07-22T01:17:10;5.17;;;3.37;;
9950;SDS011;24074;49.254;6.702;2023-07-22T01:19:36;4.20;;;3.60;;
9950;SDS011;24074;49.254;6.702;2023-07-22T01:22:04;3.97;;;3.60;;
9950;SDS011;24074;49.254;6.702;2023-07-22T01:24:32;4.63;;;3.80;;
9950;SDS011;24074;49.254;6.702;2023-07-22T01:26:58;3.97;;;3.57;;
9950;SDS011;24074;49.254;6.702;2023-07-22T01:29:24;4.20;;;3.80;;
9950;SDS011;24074;49.254;6.702;2023-07-22T01:31:50;4.13;;;3.70;;
9950;SDS011;24074;49.254;6.702;2023-07-22T01:34:17;4.17;;;3.60;;
9950;SDS011;24074;49.254;6.702;2023-07-22T01:36:44;4.30;;;3.13;;
9950;SDS011;24074;49.254;6.702;2023-07-22T01:39:12;5.10;;;3.40;;
9950;SDS011;24074;49.254;6.702;2023-07-22T01:41:39;4.50;;;3.20;;
9950;SDS011;24074;49.254;6.702;2023-07-22T01:44:04;5.00;;;3.20;;
9950;SDS011;24074;49.254;6.702;2023-07-22T01:46:30;5.63;;;3.37;;
9950;SDS011;24074;49.254;6.702;2023-07-22T01:48:55;3.70;;;2.90;;
9950;SDS011;24074;49.254;6.702;2023-07-22T01:51:21;3.63;;;3.07;;
9950;SDS011;24074;49.254;6.702;2023-07-22T01:53:47;3.33;;;2.90;;
9950;SDS011;24074;49.254;6.702;2023-07-22T01:56:13;4.30;;;3.10;;
9950;SDS011;24074;49.254;6.702;2023-07-22T01:58:38;4.50;;;3.00;;
9950;SDS011;24074;49.254;6.702;2023-07-22T02:01:04;3.87;;;3.10;;
9950;SDS011;24074;49.254;6.702;2023-07-22T02:03:30;4.67;;;2.80;;
9950;SDS011;24074;49.254;6.702;2023-07-22T02:06:02;5.73;;;3.00;;
9950;SDS011;24074;49.254;6.702;2023-07-22T02:08:29;5.67;;;3.40;;
9950;SDS011;24074;49.254;6.702;2023-07-22T02:10:55;4.67;;;3.40;;
9950;SDS011;24074;49.254;6.702;2023-07-22T02:13:29;6.47;;;3.10;;
9950;SDS011;24074;49.254;6.702;2023-07-22T02:15:58;3.27;;;2.97;;
9950;SDS011;24074;49.254;6.702;2023-07-22T02:18:24;4.00;;;3.07;;
9950;SDS011;24074;49.254;6.702;2023-07-22T02:20:50;5.70;;;3.17;;
9950;SDS011;24074;49.254;6.702;2023-07-22T02:23:16;3.50;;;2.90;;
9950;SDS011;24074;49.254;6.702;2023-07-22T02:25:43;3.80;;;3.20;;
9950;SDS011;24074;49.254;6.702;2023-07-22T02:28:09;4.30;;;2.93;;
9950;SDS011;24074;49.254;6.702;2023-07-22T02:30:35;3.23;;;2.93;;
9950;SDS011;24074;49.254;6.702;2023-07-22T02:33:01;3.53;;;3.10;;
9950;SDS011;24074;49.254;6.702;2023-07-22T02:35:27;4.60;;;3.40;;
9950;SDS011;24074;49.254;6.702;2023-07-22T02:37:53;4.93;;;3.23;;
9950;SDS011;24074;49.254;6.702;2023-07-22T02:40:19;3.50;;;3.13;;
9950;SDS011;24074;49.254;6.702;2023-07-22T02:42:44;3.30;;;3.00;;
9950;SDS011;24074;49.254;6.702;2023-07-22T02:45:10;5.67;;;3.90;;
9950;SDS011;24074;49.254;6.702;2023-07-22T02:47:36;3.97;;;3.57;;
9950;SDS011;24074;49.254;6.702;2023-07-22T02:50:02;4.93;;;3.43;;
9950;SDS011;24074;49.254;6.702;2023-07-22T02:52:29;3.43;;;3.13;;
9950;SDS011;24074;49.254;6.702;2023-07-22T02:57:37;3.50;;;3.13;;
9950;SDS011;24074;49.254;6.702;2023-07-22T03:00:03;4.20;;;2.97;;
9950;SDS011;24074;49.254;6.702;2023-07-22T03:02:36;4.33;;;3.10;;
9950;SDS011;24074;49.254;6.702;2023-07-22T03:05:06;3.97;;;3.27;;
9950;SDS011;24074;49.254;6.702;2023-07-22T03:07:39;4.47;;;3.00;;
9950;SDS011;24074;49.254;6.702;2023-07-22T03:10:05;4.30;;;2.90;;
9950;SDS011;24074;49.254;6.702;2023-07-22T03:12:32;4.60;;;3.20;;
9950;SDS011;24074;49.254;6.702;2023-07-22T03:14:58;3.77;;;3.30;;
9950;SDS011;24074;49.254;6.702;2023-07-22T03:17:24;3.67;;;3.23;;
9950;SDS011;24074;49.254;6.702;2023-07-22T03:19:50;3.70;;;3.00;;
9950;SDS011;24074;49.254;6.702;2023-07-22T03:22:16;3.27;;;2.97;;
9950;SDS011;24074;49.254;6.702;2023-07-22T03:24:42;3.30;;;3.00;;
9950;SDS011;24074;49.254;6.702;2023-07-22T03:27:09;5.10;;;3.50;;
9950;SDS011;24074;49.254;6.702;2023-07-22T03:29:34;4.80;;;3.03;;
9950;SDS011;24074;49.254;6.702;2023-07-22T03:32:00;3.97;;;3.40;;
9950;SDS011;24074;49.254;6.702;2023-07-22T03:34:26;3.40;;;3.10;;
9950;SDS011;24074;49.254;6.702;2023-07-22T03:36:53;3.53;;;3.23;;
9950;SDS011;24074;49.254;6.702;2023-07-22T03:39:19;3.80;;;3.40;;
9950;SDS011;24074;49.254;6.702;2023-07-22T03:41:45;4.40;;;3.30;;
9950;SDS011;24074;49.254;6.702;2023-07-22T03:44:10;5.20;;;3.43;;
9950;SDS011;24074;49.254;6.702;2023-07-22T03:46:37;4.43;;;3.10;;
9950;SDS011;24074;49.254;6.702;2023-07-22T03:49:02;4.23;;;3.13;;
9950;SDS011;24074;49.254;6.702;2023-07-22T03:51:28;4.73;;;3.30;;
9950;SDS011;24074;49.254;6.702;2023-07-22T03:53:54;5.27;;;3.40;;
9950;SDS011;24074;49.254;6.702;2023-07-22T03:56:19;4.20;;;3.47;;
9950;SDS011;24074;49.254;6.702;2023-07-22T03:58:45;4.00;;;3.60;;
9950;SDS011;24074;49.254;6.702;2023-07-22T04:01:11;5.23;;;3.00;;
9950;SDS011;24074;49.254;6.702;2023-07-22T04:03:37;3.50;;;3.17;;
9950;SDS011;24074;49.254;6.702;2023-07-22T04:06:03;3.40;;;3.10;;
9950;SDS011;24074;49.254;6.702;2023-07-22T04:08:28;6.30;;;3.20;;
9950;SDS011;24074;49.254;6.702;2023-07-22T04:10:57;3.30;;;3.00;;
9950;SDS011;24074;49.254;6.702;2023-07-22T04:13:23;5.50;;;3.47;;
9950;SDS011;24074;49.254;6.702;2023-07-22T04:15:50;4.80;;;3.30;;
9950;SDS011;24074;49.254;6.702;2023-07-22T04:18:16;3.60;;;3.30;;
9950;SDS011;24074;49.254;6.702;2023-07-22T04:20:43;4.73;;;3.33;;
9950;SDS011;24074;49.254;6.702;2023-07-22T04:23:09;4.47;;;3.20;;
9950;SDS011;24074;49.254;6.702;2023-07-22T04:25:41;4.30;;;2.87;;
9950;SDS011;24074;49.254;6.702;2023-07-22T04:28:07;3.60;;;3.30;;
9950;SDS011;24074;49.254;6.702;2023-07-22T04:30:34;5.63;;;3.30;;
9950;SDS011;24074;49.254;6.702;2023-07-22T04:33:00;3.67;;;3.23;;
9950;SDS011;24074;49.254;6.702;2023-07-22T04:35:26;5.00;;;3.60;;
9950;SDS011;24074;49.254;6.702;2023-07-22T04:37:51;4.13;;;3.27;;
9950;SDS011;24074;49.254;6.702;2023-07-22T04:40:17;3.97;;;3.57;;
9950;SDS011;24074;49.254;6.702;2023-07-22T04:42:43;3.80;;;3.27;;
9950;SDS011;24074;49.254;6.702;2023-07-22T04:45:10;3.60;;;3.30;;
9950;SDS011;24074;49.254;6.702;2023-07-22T04:47:36;3.50;;;3.20;;
9950;SDS011;24074;49.254;6.702;2023-07-22T04:50:03;5.30;;;3.00;;
9950;SDS011;24074;49.254;6.702;2023-07-22T04:52:32;4.63;;;3.20;;
9950;SDS011;24074;49.254;6.702;2023-07-22T04:54:58;3.93;;;3.53;;
9950;SDS011;24074;49.254;6.702;2023-07-22T04:57:23;3.53;;;3.20;;
9950;SDS011;24074;49.254;6.702;2023-07-22T04:59:49;3.80;;;2.97;;
9950;SDS011;24074;49.254;6.702;2023-07-22T05:02:14;4.50;;;3.03;;
9950;SDS011;24074;49.254;6.702;2023-07-22T05:04:40;5.43;;;3.20;;
9950;SDS011;24074;49.254;6.702;2023-07-22T05:07:05;5.40;;;3.40;;
9950;SDS011;24074;49.254;6.702;2023-07-22T05:09:31;4.20;;;3.40;;
9950;SDS011;24074;49.254;6.702;2023-07-22T05:11:58;3.93;;;3.20;;
9950;SDS011;24074;49.254;6.702;2023-07-22T05:14:23;5.00;;;3.13;;
9950;SDS011;24074;49.254;6.702;2023-07-22T05:16:49;3.83;;;3.10;;
9950;SDS011;24074;49.254;6.702;2023-07-22T05:19:14;3.60;;;3.03;;
9950;SDS011;24074;49.254;6.702;2023-07-22T05:21:40;3.47;;;3.17;;
9950;SDS011;24074;49.254;6.702;2023-07-22T05:24:06;4.63;;;3.47;;
9950;SDS011;24074;49.254;6.702;2023-07-22T05:26:32;3.90;;;3.20;;
9950;SDS011;24074;49.254;6.702;2023-07-22T05:28:57;4.83;;;3.30;;
9950;SDS011;24074;49.254;6.702;2023-07-22T05:31:23;5.97;;;3.43;;
9950;SDS011;24074;49.254;6.702;2023-07-22T05:33:51;4.07;;;3.10;;
9950;SDS011;24074;49.254;6.702;2023-07-22T05:36:16;4.40;;;3.13;;
9950;SDS011;24074;49.254;6.702;2023-07-22T05:38:42;3.83;;;3.27;;
9950;SDS011;24074;49.254;6.702;2023-07-22T05:41:08;3.57;;;3.23;;
9950;SDS011;24074;49.254;6.702;2023-07-22T05:43:33;4.97;;;3.33;;
9950;SDS011;24074;49.254;6.702;2023-07-22T05:45:59;4.37;;;3.30;;
9950;SDS011;24074;49.254;6.702;2023-07-22T05:48:24;3.53;;;3.23;;
9950;SDS011;24074;49.254;6.702;2023-07-22T05:50:50;3.67;;;3.23;;
9950;SDS011;24074;49.254;6.702;2023-07-22T05:53:15;4.43;;;3.20;;
9950;SDS011;24074;49.254;6.702;2023-07-22T05:55:41;5.20;;;3.13;;
9950;SDS011;24074;49.254;6.702;2023-07-22T05:58:06;5.60;;;3.40;;
9950;SDS011;24074;49.254;6.702;2023-07-22T06:00:39;3.70;;;2.87;;
9950;SDS011;24074;49.254;6.702;2023-07-22T06:03:05;3.93;;;3.30;;
9950;SDS011;24074;49.254;6.702;2023-07-22T06:05:30;4.87;;;3.40;;
9950;SDS011;24074;49.254;6.702;2023-07-22T06:07:56;4.43;;;3.13;;
9950;SDS011;24074;49.254;6.702;2023-07-22T06:10:22;3.07;;;2.73;;
9950;SDS011;24074;49.254;6.702;2023-07-22T06:12:47;3.17;;;2.80;;
9950;SDS011;24074;49.254;6.702;2023-07-22T06:15:13;3.50;;;3.03;;
9950;SDS011;24074;49.254;6.702;2023-07-22T06:17:40;3.57;;;3.27;;
9950;SDS011;24074;49.254;6.702;2023-07-22T06:20:05;4.33;;;3.40;;
9950;SDS011;24074;49.254;6.702;2023-07-22T06:22:31;3.03;;;2.77;;
9950;SDS011;24074;49.254;6.702;2023-07-22T06:24:57;2.90;;;2.60;;
9950;SDS011;24074;49.254;6.702;2023-07-22T06:27:23;3.87;;;3.17;;
9950;SDS011;24074;49.254;6.702;2023-07-22T06:29:48;3.20;;;2.93;;
9950;SDS011;24074;49.254;6.702;2023-07-22T06:32:14;3.70;;;3.10;;
9950;SDS011;24074;49.254;6.702;2023-07-22T06:34:39;4.60;;;3.20;;
9950;SDS011;24074;49.254;6.702;2023-07-22T06:37:05;4.00;;;3.57;;
9950;SDS011;24074;49.254;6.702;2023-07-22T06:39:30;5.50;;;3.67;;
9950;SDS011;24074;49.254;6.702;2023-07-22T06:41:56;3.90;;;3.47;;
9950;SDS011;24074;49.254;6.702;2023-07-22T06:44:21;4.57;;;3.53;;
9950;SDS011;24074;49.254;6.702;2023-07-22T06:46:47;4.03;;;3.53;;
9950;SDS011;24074;49.254;6.702;2023-07-22T06:49:13;7.47;;;3.20;;
9950;SDS011;24074;49.254;6.702;2023-07-22T06:51:38;4.53;;;3.40;;
9950;SDS011;24074;49.254;6.702;2023-07-22T06:54:04;6.50;;;3.70;;
9950;SDS011;24074;49.254;6.702;2023-07-22T06:56:29;4.93;;;3.30;;
9950;SDS011;24074;49.254;6.702;2023-07-22T06:58:55;4.73;;;3.77;;
9950;SDS011;24074;49.254;6.702;2023-07-22T07:01:21;5.73;;;4.00;;
9950;SDS011;24074;49.254;6.702;2023-07-22T07:03:47;3.87;;;3.33;;
9950;SDS011;24074;49.254;6.702;2023-07-22T07:06:12;4.10;;;3.47;;
9950;SDS011;24074;49.254;6.702;2023-07-22T07:08:38;3.87;;;3.47;;
9950;SDS011;24074;49.254;6.702;2023-07-22T07:11:04;4.87;;;3.83;;
9950;SDS011;24074;49.254;6.702;2023-07-22T07:13:30;3.83;;;3.47;;
9950;SDS011;24074;49.254;6.702;2023-07-22T07:15:55;5.03;;;3.63;;
9950;SDS011;24074;49.254;6.702;2023-07-22T07:18:21;4.00;;;3.60;;
9950;SDS011;24074;49.254;6.702;2023-07-22T07:20:46;3.60;;;3.30;;
9950;SDS011;24074;49.254;6.702;2023-07-22T07:23:13;3.87;;;3.30;;
9950;SDS011;24074;49.254;6.702;2023-07-22T07:25:41;3.75;;;3.33;;
9950;SDS011;24074;49.254;6.702;2023-07-22T07:28:06;3.45;;;3.13;;
9950;SDS011;24074;49.254;6.702;2023-07-22T07:30:32;3.65;;;3.28;;
9950;SDS011;24074;49.254;6.702;2023-07-22T07:32:58;4.80;;;3.47;;
9950;SDS011;24074;49.254;6.702;2023-07-22T07:35:23;3.80;;;3.00;;
9950;SDS011;24074;49.254;6.702;2023-07-22T07:37:49;4.88;;;3.30;;
9950;SDS011;24074;49.254;6.702;2023-07-22T07:40:15;6.15;;;3.13;;
9950;SDS011;24074;49.254;6.702;2023-07-22T07:42:40;3.80;;;3.50;;
9950;SDS011;24074;49.254;6.702;2023-07-22T07:45:06;5.28;;;3.28;;
9950;SDS011;24074;49.254;6.702;2023-07-22T07:47:32;3.83;;;2.95;;
9950;SDS011;24074;49.254;6.702;2023-07-22T07:49:57;4.15;;;3.05;;
9950;SDS011;24074;49.254;6.702;2023-07-22T07:52:23;5.40;;;2.90;;
9950;SDS011;24074;49.254;6.702;2023-07-22T07:54:49;2.83;;;2.53;;
9950;SDS011;24074;49.254;6.702;2023-07-22T07:57:15;3.65;;;2.97;;
9950;SDS011;24074;49.254;6.702;2023-07-22T07:59:40;4.40;;;2.90;;
9950;SDS011;24074;49.254;6.702;2023-07-22T08:02:06;2.72;;;2.53;;
9950;SDS011;24074;49.254;6.702;2023-07-22T08:04:34;4.40;;;2.88;;
9950;SDS011;24074;49.254;6.702;2023-07-22T08:07:06;4.45;;;2.95;;
9950;SDS011;24074;49.254;6.702;2023-07-22T08:09:41;3.28;;;3.00;;
9950;SDS011;24074;49.254;6.702;2023-07-22T08:12:07;2.90;;;2.60;;
9950;SDS011;24074;49.254;6.702;2023-07-22T08:14:33;3.20;;;2.60;;
9950;SDS011;24074;49.254;6.702;2023-07-22T08:16:58;3.03;;;2.83;;
9950;SDS011;24074;49.254;6.702;2023-07-22T08:19:24;3.65;;;2.67;;
9950;SDS011;24074;49.254;6.702;2023-07-22T08:21:49;5.07;;;2.97;;
9950;SDS011;24074;49.254;6.702;2023-07-22T08:24:15;3.40;;;3.10;;
9950;SDS011;24074;49.254;6.702;2023-07-22T08:26:41;4.07;;;2.72;;
9950;SDS011;24074;49.254;6.702;2023-07-22T08:29:06;4.32;;;3.30;;
9950;SDS011;24074;49.254;6.702;2023-07-22T08:31:32;3.45;;;2.63;;
9950;SDS011;24074;49.254;6.702;2023-07-22T08:33:57;3.78;;;2.55;;
9950;SDS011;24074;49.254;6.702;2023-07-22T08:36:23;4.32;;;2.15;;
9950;SDS011;24074;49.254;6.702;2023-07-22T08:38:48;5.53;;;2.60;;
9950;SDS011;24074;49.254;6.702;2023-07-22T08:41:17;3.85;;;2.40;;
9950;SDS011;24074;49.254;6.702;2023-07-22T08:43:43;4.38;;;2.42;;
9950;SDS011;24074;49.254;6.702;2023-07-22T08:46:11;4.15;;;2.58;;
9950;SDS011;24074;49.254;6.702;2023-07-22T08:48:37;4.60;;;2.28;;
9950;SDS011;24074;49.254;6.702;2023-07-22T08:51:10;2.53;;;2.30;;
9950;SDS011;24074;49.254;6.702;2023-07-22T08:53:41;3.13;;;2.30;;
9950;SDS011;24074;49.254;6.702;2023-07-22T08:56:11;3.08;;;2.20;;
9950;SDS011;24074;49.254;6.702;2023-07-22T08:58:37;2.83;;;2.30;;
9950;SDS011;24074;49.254;6.702;2023-07-22T09:01:04;4.20;;;2.40;;
9950;SDS011;24074;49.254;6.702;2023-07-22T09:03:30;2.80;;;2.53;;
9950;SDS011;24074;49.254;6.702;2023-07-22T09:05:57;4.35;;;2.25;;
9950;SDS011;24074;49.254;6.702;2023-07-22T09:08:23;2.92;;;2.60;;
9950;SDS011;24074;49.254;6.702;2023-07-22T09:10:49;3.10;;;2.40;;
9950;SDS011;24074;49.254;6.702;2023-07-22T09:13:15;3.67;;;2.70;;
9950;SDS011;24074;49.254;6.702;2023-07-22T09:15:43;3.28;;;2.72;;
9950;SDS011;24074;49.254;6.702;2023-07-22T09:18:09;2.97;;;2.67;;
9950;SDS011;24074;49.254;6.702;2023-07-22T09:20:40;3.38;;;2.60;;
9950;SDS011;24074;49.254;6.702;2023-07-22T09:23:06;3.22;;;2.70;;
9950;SDS011;24074;49.254;6.702;2023-07-22T09:25:32;5.45;;;2.60;;
9950;SDS011;24074;49.254;6.702;2023-07-22T09:27:58;5.28;;;2.70;;
9950;SDS011;24074;49.254;6.702;2023-07-22T09:30:26;3.28;;;2.40;;
9950;SDS011;24074;49.254;6.702;2023-07-22T09:32:53;2.92;;;2.63;;
9950;SDS011;24074;49.254;6.702;2023-07-22T09:35:23;4.65;;;2.88;;
9950;SDS011;24074;49.254;6.702;2023-07-22T09:37:52;2.80;;;2.50;;
9950;SDS011;24074;49.254;6.702;2023-07-22T09:40:18;3.00;;;2.63;;
9950;SDS011;24074;49.254;6.702;2023-07-22T09:42:55;3.20;;;2.53;;
9950;SDS011;24074;49.254;6.702;2023-07-22T09:45:23;3.83;;;2.70;;
9950;SDS011;24074;49.254;6.702;2023-07-22T09:47:50;3.75;;;2.55;;
9950;SDS011;24074;49.254;6.702;2023-07-22T09:50:20;3.08;;;2.67;;
9950;SDS011;24074;49.254;6.702;2023-07-22T09:52:48;3.25;;;2.47;;
9950;SDS011;24074;49.254;6.702;2023-07-22T09:55:15;3.28;;;2.50;;
9950;SDS011;24074;49.254;6.702;2023-07-22T09:57:53;2.90;;;2.60;;
9950;SDS011;24074;49.254;6.702;2023-07-22T10:00:19;4.22;;;3.05;;
9950;SDS011;24074;49.254;6.702;2023-07-22T10:02:46;3.35;;;2.70;;
9950;SDS011;24074;49.254;6.702;2023-07-22T10:05:15;3.85;;;2.40;;
9950;SDS011;24074;49.254;6.702;2023-07-22T10:07:47;4.93;;;2.80;;
9950;SDS011;24074;49.254;6.702;2023-07-22T10:10:22;3.67;;;2.30;;
9950;SDS011;24074;49.254;6.702;2023-07-22T10:12:51;3.65;;;3.08;;
9950;SDS011;24074;49.254;6.702;2023-07-22T10:15:18;5.22;;;2.90;;
9950;SDS011;24074;49.254;6.702;2023-07-22T10:17:44;3.00;;;2.70;;
9950;SDS011;24074;49.254;6.702;2023-07-22T10:20:10;3.53;;;2.92;;
9950;SDS011;24074;49.254;6.702;2023-07-22T10:22:41;4.07;;;2.92;;
9950;SDS011;24074;49.254;6.702;2023-07-22T10:25:08;4.88;;;2.80;;
9950;SDS011;24074;49.254;6.702;2023-07-22T10:27:46;5.72;;;2.53;;
9950;SDS011;24074;49.254;6.702;2023-07-22T10:30:16;3.30;;;2.75;;
9950;SDS011;24074;49.254;6.702;2023-07-22T10:32:46;3.80;;;2.97;;
9950;SDS011;24074;49.254;6.702;2023-07-22T10:38:08;3.05;;;2.80;;
9950;SDS011;24074;49.254;6.702;2023-07-22T10:40:49;3.97;;;2.70;;
9950;SDS011;24074;49.254;6.702;2023-07-22T10:43:16;2.90;;;2.70;;
9950;SDS011;24074;49.254;6.702;2023-07-22T10:45:48;3.50;;;2.40;;
9950;SDS011;24074;49.254;6.702;2023-07-22T10:48:16;3.63;;;2.70;;
9950;SDS011;24074;49.254;6.702;2023-07-22T10:50:43;2.88;;;2.40;;
9950;SDS011;24074;49.254;6.702;2023-07-22T10:53:20;2.85;;;2.60;;
9950;SDS011;24074;49.254;6.702;2023-07-22T10:56:10;2.92;;;2.45;;
9950;SDS011;24074;49.254;6.702;2023-07-22T11:11:53;2.88;;;2.53;;
9950;SDS011;24074;49.254;6.702;2023-07-22T11:14:26;3.90;;;2.72;;
9950;SDS011;24074;49.254;6.702;2023-07-22T11:16:53;4.22;;;3.00;;
9950;SDS011;24074;49.254;6.702;2023-07-22T11:19:22;5.35;;;2.90;;
9950;SDS011;24074;49.254;6.702;2023-07-22T11:21:49;3.80;;;3.03;;
9950;SDS011;24074;49.254;6.702;2023-07-22T11:24:18;8.30;;;2.72;;
9950;SDS011;24074;49.254;6.702;2023-07-22T11:26:45;3.45;;;2.47;;
9950;SDS011;24074;49.254;6.702;2023-07-22T11:29:11;3.85;;;2.85;;
9950;SDS011;24074;49.254;6.702;2023-07-22T11:31:38;2.85;;;2.40;;
9950;SDS011;24074;49.254;6.702;2023-07-22T11:34:09;3.53;;;2.63;;
9950;SDS011;24074;49.254;6.702;2023-07-22T11:36:35;3.78;;;2.88;;
9950;SDS011;24074;49.254;6.702;2023-07-22T11:39:03;4.53;;;2.75;;
9950;SDS011;24074;49.254;6.702;2023-07-22T11:41:29;2.95;;;2.58;;
9950;SDS011;24074;49.254;6.702;2023-07-22T11:43:59;3.88;;;2.70;;
9950;SDS011;24074;49.254;6.702;2023-07-22T11:46:25;3.97;;;2.78;;
9950;SDS011;24074;49.254;6.702;2023-07-22T11:48:52;3.33;;;2.60;;
9950;SDS011;24074;49.254;6.702;2023-07-22T11:51:22;3.28;;;2.65;;
9950;SDS011;24074;49.254;6.702;2023-07-22T11:53:49;3.90;;;3.08;;
9950;SDS011;24074;49.254;6.702;2023-07-22T11:56:22;4.32;;;2.67;;
9950;SDS011;24074;49.254;6.702;2023-07-22T11:58:52;3.20;;;2.60;;
9950;SDS011;24074;49.254;6.702;2023-07-22T12:01:21;5.00;;;2.85;;
9950;SDS011;24074;49.254;6.702;2023-07-22T12:03:47;5.00;;;2.80;;
9950;SDS011;24074;49.254;6.702;2023-07-22T12:06:14;3.95;;;2.97;;
9950;SDS011;24074;49.254;6.702;2023-07-22T12:08:48;3.78;;;3.08;;
9950;SDS011;24074;49.254;6.702;2023-07-22T12:11:17;3.20;;;2.90;;
9950;SDS011;24074;49.254;6.702;2023-07-22T12:13:49;5.38;;;2.90;;
9950;SDS011;24074;49.254;6.702;2023-07-22T12:16:35;4.85;;;2.90;;
9950;SDS011;24074;49.254;6.702;2023-07-22T12:19:02;4.00;;;2.65;;
9950;SDS011;24074;49.254;6.702;2023-07-22T12:21:28;4.15;;;2.88;;
9950;SDS011;24074;49.254;6.702;2023-07-22T12:23:53;5.03;;;2.92;;
9950;SDS011;24074;49.254;6.702;2023-07-22T12:26:19;3.95;;;2.72;;
9950;SDS011;24074;49.254;6.702;2023-07-22T12:28:45;5.55;;;3.08;;
9950;SDS011;24074;49.254;6.702;2023-07-22T12:31:11;3.55;;;2.60;;
9950;SDS011;24074;49.254;6.702;2023-07-22T12:33:36;3.70;;;2.90;;
9950;SDS011;24074;49.254;6.702;2023-07-22T12:36:02;3.35;;;2.88;;
9950;SDS011;24074;49.254;6.702;2023-07-22T12:38:28;2.90;;;2.63;;
9950;SDS011;24074;49.254;6.702;2023-07-22T12:40:53;3.90;;;2.70;;
9950;SDS011;24074;49.254;6.702;2023-07-22T12:43:19;3.90;;;2.67;;
9950;SDS011;24074;49.254;6.702;2023-07-22T12:45:44;4.90;;;2.70;;
9950;SDS011;24074;49.254;6.702;2023-07-22T12:48:10;2.97;;;2.63;;
9950;SDS011;24074;49.254;6.702;2023-07-22T12:50:35;3.67;;;2.80;;
9950;SDS011;24074;49.254;6.702;2023-07-22T12:53:02;4.03;;;2.70;;
9950;SDS011;24074;49.254;6.702;2023-07-22T12:55:28;3.28;;;2.78;;
9950;SDS011;24074;49.254;6.702;2023-07-22T12:57:54;4.72;;;2.60;;
9950;SDS011;24074;49.254;6.702;2023-07-22T13:00:20;4.10;;;2.65;;
9950;SDS011;24074;49.254;6.702;2023-07-22T13:02:46;4.22;;;2.47;;
9950;SDS011;24074;49.254;6.702;2023-07-22T13:05:12;4.70;;;2.78;;
9950;SDS011;24074;49.254;6.702;2023-07-22T13:07:38;4.10;;;2.75;;
9950;SDS011;24074;49.254;6.702;2023-07-22T13:10:07;4.43;;;2.75;;
9950;SDS011;24074;49.254;6.702;2023-07-22T13:12:35;3.30;;;2.70;;
9950;SDS011;24074;49.254;6.702;2023-07-22T13:15:02;3.58;;;2.70;;
9950;SDS011;24074;49.254;6.702;2023-07-22T13:17:28;7.63;;;2.90;;
9950;SDS011;24074;49.254;6.702;2023-07-22T13:19:56;5.28;;;2.50;;
9950;SDS011;24074;49.254;6.702;2023-07-22T13:22:22;2.63;;;2.40;;
9950;SDS011;24074;49.254;6.702;2023-07-22T13:24:48;4.15;;;2.78;;
9950;SDS011;24074;49.254;6.702;2023-07-22T13:27:13;3.22;;;2.70;;
9950;SDS011;24074;49.254;6.702;2023-07-22T13:29:39;4.10;;;2.85;;
9950;SDS011;24074;49.254;6.702;2023-07-22T13:32:04;2.97;;;2.67;;
9950;SDS011;24074;49.254;6.702;2023-07-22T13:34:31;4.60;;;2.92;;
9950;SDS011;24074;49.254;6.702;2023-07-22T13:36:56;3.13;;;2.55;;
9950;SDS011;24074;49.254;6.702;2023-07-22T13:39:22;3.92;;;2.63;;
9950;SDS011;24074;49.254;6.702;2023-07-22T13:41:48;4.75;;;2.80;;
9950;SDS011;24074;49.254;6.702;2023-07-22T13:44:14;2.63;;;2.33;;
9950;SDS011;24074;49.254;6.702;2023-07-22T13:46:39;2.80;;;2.60;;
9950;SDS011;24074;49.254;6.702;2023-07-22T13:49:05;3.10;;;2.80;;
9950;SDS011;24074;49.254;6.702;2023-07-22T13:51:30;4.45;;;2.53;;
9950;SDS011;24074;49.254;6.702;2023-07-22T13:53:56;4.95;;;2.78;;
9950;SDS011;24074;49.254;6.702;2023-07-22T13:56:23;4.72;;;2.75;;
9950;SDS011;24074;49.254;6.702;2023-07-22T13:58:49;3.88;;;2.78;;
9950;SDS011;24074;49.254;6.702;2023-07-22T14:01:14;4.07;;;2.58;;
9950;SDS011;24074;49.254;6.702;2023-07-22T14:03:40;2.65;;;2.45;;
9950;SDS011;24074;49.254;6.702;2023-07-22T14:06:05;2.63;;;2.42;;
9950;SDS011;24074;49.254;6.702;2023-07-22T14:08:31;4.50;;;2.83;;
9950;SDS011;24074;49.254;6.702;2023-07-22T14:10:58;6.30;;;2.90;;
9950;SDS011;24074;49.254;6.702;2023-07-22T14:13:24;2.83;;;2.53;;
9950;SDS011;24074;49.254;6.702;2023-07-22T14:15:49;3.15;;;2.85;;
9950;SDS011;24074;49.254;6.702;2023-07-22T14:18:15;3.17;;;2.53;;
9950;SDS011;24074;49.254;6.702;2023-07-22T14:20:45;3.42;;;2.60;;
9950;SDS011;24074;49.254;6.702;2023-07-22T14:23:11;5.80;;;2.78;;
9950;SDS011;24074;49.254;6.702;2023-07-22T14:25:38;3.33;;;2.15;;
9950;SDS011;24074;49.254;6.702;2023-07-22T14:28:03;2.58;;;2.38;;
9950;SDS011;24074;49.254;6.702;2023-07-22T14:30:29;3.78;;;2.60;;
9950;SDS011;24074;49.254;6.702;2023-07-22T14:32:55;2.60;;;2.25;;
9950;SDS011;24074;49.254;6.702;2023-07-22T14:35:20;2.88;;;2.60;;
9950;SDS011;24074;49.254;6.702;2023-07-22T14:37:46;2.67;;;2.30;;
9950;SDS011;24074;49.254;6.702;2023-07-22T14:40:12;5.72;;;2.70;;
9950;SDS011;24074;49.254;6.702;2023-07-22T14:42:38;3.42;;;2.50;;
9950;SDS011;24074;49.254;6.702;2023-07-22T14:45:03;4.03;;;2.58;;
9950;SDS011;24074;49.254;6.702;2023-07-22T14:47:30;3.28;;;2.72;;
9950;SDS011;24074;49.254;6.702;2023-07-22T14:49:55;2.80;;;2.35;;
9950;SDS011;24074;49.254;6.702;2023-07-22T14:52:21;3.88;;;2.70;;
9950;SDS011;24074;49.254;6.702;2023-07-22T14:54:47;4.93;;;2.90;;
9950;SDS011;24074;49.254;6.702;2023-07-22T14:57:14;4.97;;;2.50;;
9950;SDS011;24074;49.254;6.702;2023-07-22T14:59:40;2.60;;;2.40;;
9950;SDS011;24074;49.254;6.702;2023-07-22T15:02:06;4.22;;;2.70;;
9950;SDS011;24074;49.254;6.702;2023-07-22T15:04:32;4.32;;;2.42;;
9950;SDS011;24074;49.254;6.702;2023-07-22T15:06:58;4.88;;;2.60;;
9950;SDS011;24074;49.254;6.702;2023-07-22T15:09:23;2.50;;;2.30;;
9950;SDS011;24074;49.254;6.702;2023-07-22T15:11:49;4.43;;;2.40;;
9950;SDS011;24074;49.254;6.702;2023-07-22T15:14:18;3.63;;;2.78;;
9950;SDS011;24074;49.254;6.702;2023-07-22T15:16:43;3.83;;;2.33;;